createdAt,value
2023-05-23T00:02:08.220Z,98985.70
2023-05-23T00:04:37.077Z,98985.85
2023-05-23T00:07:05.753Z,98986.95
2023-05-23T00:09:33.363Z,98985.61
2023-05-23T00:12:01.023Z,98983.61
2023-05-23T00:14:33.867Z,98985.77
2023-05-23T00:17:01.820Z,98986.29
2023-05-23T00:19:29.685Z,98986.74
2023-05-23T00:21:58.641Z,98982.71
2023-05-23T00:24:27.201Z,98982.98
2023-05-23T00:26:54.983Z,98981.52
2023-05-23T00:29:22.705Z,98983.55
2023-05-23T00:31:50.960Z,98984.52
2023-05-23T00:34:19.135Z,98981.88
2023-05-23T00:36:50.537Z,98984.83
2023-05-23T00:39:21.722Z,98974.80
2023-05-23T00:41:51.885Z,98974.15
2023-05-23T00:44:21.699Z,98967.58
2023-05-23T00:46:55.436Z,98965.99
2023-05-23T00:49:24.350Z,98964.20
2023-05-23T00:51:52.518Z,98967.04
2023-05-23T00:54:39.302Z,98968.33
2023-05-23T00:57:07.125Z,98968.55
2023-05-23T00:59:36.897Z,98965.50
2023-05-23T01:02:05.119Z,98965.19
2023-05-23T01:04:34.342Z,98961.31
2023-05-23T01:07:02.654Z,98962.88
2023-05-23T01:09:30.976Z,98960.09
2023-05-23T01:12:19.452Z,98962.55
2023-05-23T01:15:00.098Z,98964.03
2023-05-23T01:17:47.430Z,98959.70
2023-05-23T01:20:22.561Z,98962.92
2023-05-23T01:23:02.495Z,98960.79
2023-05-23T01:25:41.511Z,98959.53
2023-05-23T01:28:12.865Z,98959.19
2023-05-23T01:30:42.028Z,98958.11
2023-05-23T01:33:11.805Z,98954.60
2023-05-23T01:35:40.118Z,98948.31
2023-05-23T01:38:08.145Z,98947.33
2023-05-23T01:40:35.858Z,98943.55
2023-05-23T01:43:03.551Z,98943.64
2023-05-23T01:45:31.749Z,98944.14
2023-05-23T01:48:00.475Z,98940.70
2023-05-23T01:50:28.738Z,98942.30
2023-05-23T01:52:57.168Z,98942.05
2023-05-23T01:55:26.481Z,98939.70
2023-05-23T01:57:58.055Z,98939.95
2023-05-23T02:00:25.917Z,98938.98
2023-05-23T02:02:54.072Z,98945.55
2023-05-23T02:05:22.409Z,98946.09
2023-05-23T02:07:50.000Z,98943.36
2023-05-23T02:10:19.242Z,98938.13
2023-05-23T02:12:46.926Z,98935.96
2023-05-23T02:15:15.032Z,98935.73
2023-05-23T02:17:43.090Z,98933.30
2023-05-23T02:20:11.609Z,98929.51
2023-05-23T02:22:39.591Z,98927.66
2023-05-23T02:25:07.909Z,98924.02
2023-05-23T02:27:35.682Z,98924.08
2023-05-23T02:30:04.126Z,98920.96
2023-05-23T02:32:32.347Z,98918.41
2023-05-23T02:35:00.307Z,98916.55
2023-05-23T02:37:28.041Z,98920.17
2023-05-23T02:39:56.820Z,98916.55
2023-05-23T02:42:24.569Z,98916.33
2023-05-23T02:44:52.208Z,98913.29
2023-05-23T02:47:20.155Z,98915.30
2023-05-23T02:49:49.608Z,98912.49
2023-05-23T02:52:17.830Z,98909.84
2023-05-23T02:54:45.774Z,98909.44
2023-05-23T02:57:13.619Z,98909.61
2023-05-23T02:59:42.031Z,98908.25
2023-05-23T03:02:09.797Z,98906.58
2023-05-23T03:04:38.362Z,98906.13
2023-05-23T03:07:11.520Z,98903.35
2023-05-23T03:09:45.367Z,98902.92
2023-05-23T03:12:13.138Z,98897.89
2023-05-23T03:14:40.849Z,98896.73
2023-05-23T03:17:08.500Z,98890.56
2023-05-23T03:19:36.754Z,98889.83
2023-05-23T03:22:04.787Z,98888.17
2023-05-23T03:24:32.966Z,98884.64
2023-05-23T03:27:02.083Z,98881.80
2023-05-23T03:29:29.856Z,98886.13
2023-05-23T03:31:58.539Z,98891.39
2023-05-23T03:34:27.212Z,98893.19
2023-05-23T03:36:54.893Z,98889.16
2023-05-23T03:39:23.392Z,98887.36
2023-05-23T03:41:51.593Z,98887.37
2023-05-23T03:44:19.448Z,98887.48
2023-05-23T03:46:47.143Z,98887.82
2023-05-23T03:49:15.835Z,98890.56
2023-05-23T03:51:43.648Z,98885.88
2023-05-23T03:54:12.839Z,98882.56
2023-05-23T03:56:41.057Z,98881.78
2023-05-23T03:59:08.692Z,98882.41
2023-05-23T04:01:36.824Z,98881.88
2023-05-23T04:04:05.335Z,98878.94
2023-05-23T04:06:36.794Z,98876.27
2023-05-23T04:09:06.312Z,98876.91
2023-05-23T04:11:37.548Z,98873.14
2023-05-23T04:14:05.323Z,98878.02
2023-05-23T04:16:33.281Z,98874.48
2023-05-23T04:19:04.886Z,98877.60
2023-05-23T04:21:34.533Z,98879.38
2023-05-23T04:24:14.677Z,98875.27
2023-05-23T04:26:43.084Z,98871.89
2023-05-23T04:29:12.329Z,98877.69
2023-05-23T04:31:40.259Z,98878.58
2023-05-23T04:34:08.259Z,98877.44
2023-05-23T04:36:39.150Z,98876.65
2023-05-23T04:39:06.867Z,98877.55
2023-05-23T04:41:40.444Z,98876.79
2023-05-23T04:44:30.330Z,98874.80
2023-05-23T04:47:15.793Z,98872.56
2023-05-23T04:49:55.632Z,98869.03
2023-05-23T04:52:23.362Z,98869.56
2023-05-23T04:54:51.237Z,98870.48
2023-05-23T04:57:19.119Z,98865.16
2023-05-23T04:59:46.787Z,98865.82
2023-05-23T05:02:14.463Z,98870.44
2023-05-23T05:04:42.216Z,98868.70
2023-05-23T05:07:11.137Z,98863.63
2023-05-23T05:09:40.062Z,98861.30
2023-05-23T05:12:08.812Z,98863.81
2023-05-23T05:14:37.197Z,98862.02
2023-05-23T05:17:05.546Z,98859.63
2023-05-23T05:19:42.324Z,98854.22
2023-05-23T05:22:09.953Z,98857.29
2023-05-23T05:24:41.343Z,98859.00
2023-05-23T05:27:09.594Z,98857.77
2023-05-23T05:29:37.438Z,98854.24
2023-05-23T05:32:08.964Z,98850.84
2023-05-23T05:34:37.862Z,98848.19
2023-05-23T05:37:07.033Z,98848.77
2023-05-23T05:39:34.732Z,98849.41
2023-05-23T05:42:03.832Z,98845.73
2023-05-23T05:44:32.132Z,98843.58
2023-05-23T05:46:59.777Z,98837.32
2023-05-23T05:49:27.461Z,98841.09
2023-05-23T05:51:56.420Z,98842.41
2023-05-23T05:54:24.022Z,98837.08
2023-05-23T05:56:51.697Z,98839.89
2023-05-23T05:59:19.430Z,98839.41
2023-05-23T06:01:47.084Z,98838.11
2023-05-23T06:04:15.223Z,98834.70
2023-05-23T06:06:43.813Z,98834.44
2023-05-23T06:09:11.889Z,98832.96
2023-05-23T06:11:41.117Z,98835.84
2023-05-23T06:14:09.507Z,98832.16
2023-05-23T06:16:39.453Z,98831.95
2023-05-23T06:19:08.641Z,98833.08
2023-05-23T06:21:37.776Z,98828.08
2023-05-23T06:24:06.694Z,98822.81
2023-05-23T06:26:34.836Z,98826.48
2023-05-23T06:29:02.479Z,98829.88
2023-05-23T06:31:30.252Z,98833.39
2023-05-23T06:33:59.133Z,98832.52
2023-05-23T06:36:26.791Z,98836.50
2023-05-23T06:38:56.058Z,98835.45
2023-05-23T06:41:23.810Z,98826.93
2023-05-23T06:43:53.198Z,98831.33
2023-05-23T06:46:25.177Z,98831.33
2023-05-23T06:49:02.489Z,98826.61
2023-05-23T06:51:41.243Z,98826.46
2023-05-23T06:54:11.484Z,98826.50
2023-05-23T06:56:39.837Z,98825.32
2023-05-23T06:59:07.701Z,98820.40
2023-05-23T07:01:35.826Z,98817.33
2023-05-23T07:04:03.638Z,98810.16
2023-05-23T07:06:32.793Z,98807.88
2023-05-23T07:09:01.980Z,98803.83
2023-05-23T07:11:31.570Z,98802.42
2023-05-23T07:14:00.997Z,98798.70
2023-05-23T07:16:48.920Z,98793.81
2023-05-23T07:19:17.900Z,98788.45
2023-05-23T07:21:48.683Z,98787.89
2023-05-23T07:24:18.218Z,98786.76
2023-05-23T07:26:45.973Z,98785.89
2023-05-23T07:29:13.825Z,98784.77
2023-05-23T07:31:41.766Z,98782.08
2023-05-23T07:34:10.044Z,98787.63
2023-05-23T07:36:44.024Z,98789.83
2023-05-23T07:39:13.000Z,98787.64
2023-05-23T07:41:40.636Z,98785.98
2023-05-23T07:44:09.701Z,98783.65
2023-05-23T07:46:37.918Z,98782.45
2023-05-23T07:49:06.179Z,98782.98
2023-05-23T07:51:35.310Z,98780.47
2023-05-23T07:54:03.122Z,98779.59
2023-05-23T07:56:31.205Z,98778.09
2023-05-23T07:58:58.872Z,98773.53
2023-05-23T08:01:26.619Z,98775.04
2023-05-23T08:04:04.202Z,98773.34
2023-05-23T08:07:04.214Z,98770.05
2023-05-23T08:09:42.249Z,98766.41
2023-05-23T08:12:11.046Z,98764.45
2023-05-23T08:14:50.598Z,98759.77
2023-05-23T08:17:24.626Z,98764.74
2023-05-23T08:19:52.516Z,98763.36
2023-05-23T08:22:20.715Z,98762.65
2023-05-23T08:24:48.566Z,98761.19
2023-05-23T08:27:16.729Z,98758.04
2023-05-23T08:29:46.511Z,98758.83
2023-05-23T08:32:14.472Z,98758.95
2023-05-23T08:34:42.413Z,98756.34
2023-05-23T08:37:10.142Z,98756.80
2023-05-23T08:39:38.451Z,98758.48
2023-05-23T08:42:20.592Z,98759.22
2023-05-23T08:44:49.381Z,98755.41
2023-05-23T08:47:19.827Z,98759.99
2023-05-23T08:50:02.046Z,98765.17
2023-05-23T08:52:31.087Z,98761.45
2023-05-23T08:55:01.172Z,98756.48
2023-05-23T08:57:30.941Z,98753.89
2023-05-23T09:00:10.472Z,98746.61
2023-05-23T09:02:41.844Z,98751.02
2023-05-23T09:05:20.985Z,98753.46
2023-05-23T09:07:49.671Z,98749.92
2023-05-23T09:10:21.865Z,98740.20
2023-05-23T09:12:49.923Z,98739.87
2023-05-23T09:15:18.877Z,98739.79
2023-05-23T09:17:46.914Z,98737.82
2023-05-23T09:20:17.319Z,98736.01
2023-05-23T09:22:50.698Z,98734.52
2023-05-23T09:25:19.197Z,98737.80
2023-05-23T09:27:48.265Z,98740.63
2023-05-23T09:30:18.303Z,98741.27
2023-05-23T09:33:04.789Z,98735.41
2023-05-23T09:35:33.924Z,98737.02
2023-05-23T09:38:01.780Z,98734.88
2023-05-23T09:40:32.065Z,98733.41
2023-05-23T09:43:04.045Z,98732.42
2023-05-23T09:45:33.290Z,98734.68
2023-05-23T09:48:02.346Z,98736.77
2023-05-23T09:50:33.813Z,98735.30
2023-05-23T09:53:02.999Z,98734.89
2023-05-23T09:55:31.081Z,98732.09
2023-05-23T09:57:59.736Z,98731.84
2023-05-23T10:00:28.674Z,98734.96
2023-05-23T10:03:08.256Z,98733.84
2023-05-23T10:05:51.208Z,98729.66
2023-05-23T10:08:22.813Z,98726.85
2023-05-23T10:11:13.680Z,98723.32
2023-05-23T10:13:45.792Z,98724.77
2023-05-23T10:16:21.977Z,98724.65
2023-05-23T10:18:56.960Z,98725.64
2023-05-23T10:21:36.793Z,98723.61
2023-05-23T10:24:04.872Z,98713.41
2023-05-23T10:26:32.976Z,98706.67
2023-05-23T10:29:01.825Z,98704.41
2023-05-23T10:31:29.915Z,98702.77
2023-05-23T10:34:11.841Z,98702.33
2023-05-23T10:36:45.969Z,98706.23
2023-05-23T10:39:28.849Z,98704.17
2023-05-23T10:42:01.092Z,98706.82
2023-05-23T10:44:31.027Z,98701.60
2023-05-23T10:47:03.206Z,98703.14
2023-05-23T10:49:42.339Z,98697.42
2023-05-23T10:52:11.998Z,98695.39
2023-05-23T10:54:51.732Z,98685.46
2023-05-23T10:57:21.308Z,98691.75
2023-05-23T10:59:52.066Z,98693.38
2023-05-23T11:02:27.322Z,98686.84
2023-05-23T11:05:23.508Z,98689.16
2023-05-23T11:08:14.343Z,98684.19
2023-05-23T11:10:56.428Z,98683.73
2023-05-23T11:13:24.204Z,98680.27
2023-05-23T11:15:52.314Z,98674.58
2023-05-23T11:18:31.089Z,98677.27
2023-05-23T11:20:58.787Z,98675.84
2023-05-23T11:23:40.562Z,98675.68
2023-05-23T11:26:32.086Z,98677.59
2023-05-23T11:29:00.441Z,98678.21
2023-05-23T11:31:28.273Z,98675.06
2023-05-23T11:33:56.283Z,98670.96
2023-05-23T11:36:24.291Z,98663.38
2023-05-23T11:38:53.264Z,98668.91
2023-05-23T11:41:21.965Z,98672.41
2023-05-23T11:43:52.882Z,98672.92
2023-05-23T11:46:20.601Z,98671.89
2023-05-23T11:48:48.815Z,98675.98
2023-05-23T11:51:17.458Z,98673.64
2023-05-23T11:53:46.114Z,98671.10
2023-05-23T11:56:15.632Z,98668.53
2023-05-23T11:58:45.155Z,98670.14
2023-05-23T12:01:13.721Z,98666.86
2023-05-23T12:03:49.592Z,98666.36
2023-05-23T12:06:22.347Z,98668.27
2023-05-23T12:08:51.818Z,98664.83
2023-05-23T12:11:19.561Z,98663.43
2023-05-23T12:13:47.652Z,98659.06
2023-05-23T12:16:15.849Z,98660.36
2023-05-23T12:18:43.938Z,98661.77
2023-05-23T12:21:12.183Z,98663.67
2023-05-23T12:23:41.946Z,98660.42
2023-05-23T12:26:10.522Z,98660.11
2023-05-23T12:28:45.676Z,98657.27
2023-05-23T12:31:27.075Z,98656.55
2023-05-23T12:33:54.991Z,98651.38
2023-05-23T12:36:24.991Z,98649.23
2023-05-23T12:38:53.635Z,98645.48
2023-05-23T12:41:22.133Z,98645.63
2023-05-23T12:43:54.426Z,98648.23
2023-05-23T12:46:24.595Z,98649.79
2023-05-23T12:48:53.652Z,98649.89
2023-05-23T12:51:21.676Z,98646.45
2023-05-23T12:53:49.334Z,98643.57
2023-05-23T12:56:17.005Z,98642.27
2023-05-23T12:58:44.864Z,98639.25
2023-05-23T13:01:12.577Z,98634.15
2023-05-23T13:03:40.951Z,98632.08
2023-05-23T13:06:08.653Z,98633.58
2023-05-23T13:08:36.540Z,98631.98
2023-05-23T13:11:05.562Z,98632.69
2023-05-23T13:13:33.778Z,98631.85
2023-05-23T13:16:01.757Z,98626.30
2023-05-23T13:18:29.446Z,98624.52
2023-05-23T13:20:57.189Z,98624.27
2023-05-23T13:23:26.068Z,98623.04
2023-05-23T13:25:54.025Z,98622.77
2023-05-23T13:28:21.723Z,98625.59
2023-05-23T13:30:49.644Z,98625.45
2023-05-23T13:33:17.764Z,98623.08
2023-05-23T13:35:49.197Z,98622.89
2023-05-23T13:38:20.842Z,98626.33
2023-05-23T13:40:50.486Z,98620.84
2023-05-23T13:43:19.201Z,98619.98
2023-05-23T13:45:47.440Z,98618.70
2023-05-23T13:48:15.311Z,98617.27
2023-05-23T13:50:43.750Z,98615.69
2023-05-23T13:53:16.579Z,98618.56
2023-05-23T13:55:47.319Z,98619.30
2023-05-23T13:58:15.251Z,98614.70
2023-05-23T14:00:43.394Z,98612.05
2023-05-23T14:03:11.909Z,98610.65
2023-05-23T14:05:40.765Z,98609.70
2023-05-23T14:08:08.640Z,98607.22
2023-05-23T14:10:36.621Z,98608.49
2023-05-23T14:13:04.353Z,98604.48
2023-05-23T14:15:34.544Z,98597.48
2023-05-23T14:18:02.916Z,98597.00
2023-05-23T14:20:31.131Z,98594.74
2023-05-23T14:22:58.937Z,98595.34
2023-05-23T14:25:26.786Z,98594.17
2023-05-23T14:27:54.536Z,98594.38
2023-05-23T14:30:22.231Z,98594.67
2023-05-23T14:32:50.133Z,98594.81
2023-05-23T14:35:18.017Z,98600.55
2023-05-23T14:37:46.854Z,98599.07
2023-05-23T14:40:16.438Z,98600.11
2023-05-23T14:42:44.318Z,98601.80
2023-05-23T14:45:12.449Z,98597.70
2023-05-23T14:47:40.191Z,98591.72
2023-05-23T14:50:08.923Z,98591.33
2023-05-23T14:52:36.565Z,98590.54
2023-05-23T14:55:04.856Z,98587.33
2023-05-23T14:57:32.603Z,98587.80
2023-05-23T15:00:01.554Z,98591.63
2023-05-23T15:02:29.431Z,98592.05
2023-05-23T15:04:57.879Z,98590.67
2023-05-23T15:07:26.438Z,98588.16
2023-05-23T15:09:54.144Z,98591.30
2023-05-23T15:12:22.305Z,98593.22
2023-05-23T15:14:50.037Z,98591.44
2023-05-23T15:17:24.130Z,98591.15
2023-05-23T15:19:56.967Z,98593.46
2023-05-23T15:22:37.913Z,98590.14
2023-05-23T15:25:08.349Z,98591.65
2023-05-23T15:27:36.795Z,98592.11
2023-05-23T15:30:05.636Z,98591.70
2023-05-23T15:32:33.519Z,98590.96
2023-05-23T15:35:01.466Z,98588.31
2023-05-23T15:37:29.117Z,98587.84
2023-05-23T15:39:56.729Z,98588.20
2023-05-23T15:42:24.411Z,98588.53
2023-05-23T15:44:52.403Z,98586.15
2023-05-23T15:47:20.930Z,98583.21
2023-05-23T15:49:48.787Z,98578.61
2023-05-23T15:52:16.440Z,98576.66
2023-05-23T15:54:44.150Z,98577.45
2023-05-23T15:57:11.917Z,98576.44
2023-05-23T15:59:39.631Z,98573.64
2023-05-23T16:02:08.605Z,98574.96
2023-05-23T16:04:36.862Z,98576.23
2023-05-23T16:07:05.400Z,98574.74
2023-05-23T16:09:33.366Z,98569.90
2023-05-23T16:12:01.010Z,98564.34
2023-05-23T16:14:30.843Z,98562.08
2023-05-23T16:17:02.929Z,98560.84
2023-05-23T16:19:30.730Z,98564.53
2023-05-23T16:21:58.954Z,98562.45
2023-05-23T16:24:28.183Z,98562.96
2023-05-23T16:26:56.396Z,98559.14
2023-05-23T16:29:24.182Z,98563.38
2023-05-23T16:31:51.891Z,98568.01
2023-05-23T16:34:19.882Z,98568.83
2023-05-23T16:36:48.067Z,98566.27
2023-05-23T16:39:16.221Z,98566.08
2023-05-23T16:41:44.206Z,98565.39
2023-05-23T16:44:11.996Z,98567.17
2023-05-23T16:46:40.360Z,98566.16
2023-05-23T16:49:08.363Z,98565.15
2023-05-23T16:51:36.122Z,98565.78
2023-05-23T16:54:04.139Z,98565.35
2023-05-23T16:56:32.085Z,98562.14
2023-05-23T16:58:59.756Z,98564.71
2023-05-23T17:01:29.212Z,98561.43
2023-05-23T17:03:57.359Z,98562.81
2023-05-23T17:06:25.797Z,98564.91
2023-05-23T17:08:53.777Z,98562.42
2023-05-23T17:11:23.042Z,98560.41
2023-05-23T17:13:52.249Z,98563.39
2023-05-23T17:16:20.895Z,98561.80
2023-05-23T17:18:49.213Z,98564.54
2023-05-23T17:21:17.481Z,98563.20
2023-05-23T17:23:45.974Z,98562.60
2023-05-23T17:26:14.056Z,98559.38
2023-05-23T17:28:42.238Z,98560.25
2023-05-23T17:31:10.879Z,98563.17
2023-05-23T17:33:39.073Z,98564.13
2023-05-23T17:36:07.165Z,98562.63
2023-05-23T17:38:35.768Z,98563.24
2023-05-23T17:41:05.370Z,98565.89
2023-05-23T17:43:33.751Z,98565.29
2023-05-23T17:46:02.082Z,98563.23
2023-05-23T17:48:45.895Z,98560.73
2023-05-23T17:51:15.891Z,98560.75
2023-05-23T17:53:43.902Z,98563.94
2023-05-23T17:56:11.876Z,98562.47
2023-05-23T17:58:41.794Z,98569.15
2023-05-23T18:01:13.634Z,98568.41
2023-05-23T18:03:41.795Z,98569.96
2023-05-23T18:06:09.989Z,98572.52
2023-05-23T18:08:38.698Z,98571.44
2023-05-23T18:11:06.852Z,98572.73
2023-05-23T18:13:35.481Z,98572.09
2023-05-23T18:16:03.598Z,98577.19
2023-05-23T18:18:31.748Z,98574.08
2023-05-23T18:20:59.835Z,98574.53
2023-05-23T18:23:27.840Z,98575.47
2023-05-23T18:25:55.956Z,98577.77
2023-05-23T18:28:24.650Z,98584.54
2023-05-23T18:30:52.789Z,98586.06
2023-05-23T18:33:22.353Z,98581.67
2023-05-23T18:35:51.266Z,98584.60
2023-05-23T18:38:19.970Z,98586.27
2023-05-23T18:40:47.972Z,98589.25
2023-05-23T18:43:17.494Z,98591.64
2023-05-23T18:45:46.122Z,98590.58
2023-05-23T18:48:14.725Z,98593.98
2023-05-23T18:50:42.671Z,98594.54
2023-05-23T18:53:12.087Z,98596.38
2023-05-23T18:55:40.108Z,98599.73
2023-05-23T18:58:07.993Z,98600.59
2023-05-23T19:00:35.802Z,98599.14
2023-05-23T19:03:04.428Z,98602.29
2023-05-23T19:05:33.938Z,98604.21
2023-05-23T19:08:03.416Z,98599.95
2023-05-23T19:10:32.155Z,98605.27
2023-05-23T19:13:02.380Z,98612.48
2023-05-23T19:15:31.345Z,98613.31
2023-05-23T19:17:59.601Z,98613.22
2023-05-23T19:20:28.823Z,98614.11
2023-05-23T19:22:57.970Z,98614.38
2023-05-23T19:25:26.117Z,98611.69
2023-05-23T19:27:54.291Z,98608.02
2023-05-23T19:30:24.282Z,98605.16
2023-05-23T19:32:53.364Z,98606.80
2023-05-23T19:35:21.919Z,98610.65
2023-05-23T19:37:50.374Z,98617.11
2023-05-23T19:40:21.391Z,98613.60
2023-05-23T19:42:49.643Z,98618.68
2023-05-23T19:45:19.174Z,98615.22
2023-05-23T19:47:46.876Z,98617.60
2023-05-23T19:50:15.227Z,98619.13
2023-05-23T19:52:42.934Z,98619.88
2023-05-23T19:55:11.860Z,98618.80
2023-05-23T19:57:41.095Z,98621.02
2023-05-23T20:00:10.507Z,98621.23
2023-05-23T20:02:42.448Z,98618.77
2023-05-23T20:05:11.353Z,98620.11
2023-05-23T20:07:39.942Z,98616.45
2023-05-23T20:10:09.313Z,98613.09
2023-05-23T20:12:37.382Z,98618.63
2023-05-23T20:15:07.686Z,98617.92
2023-05-23T20:17:35.856Z,98615.62
2023-05-23T20:20:04.868Z,98616.87
2023-05-23T20:22:32.930Z,98617.04
2023-05-23T20:25:00.612Z,98622.55
2023-05-23T20:27:28.955Z,98623.36
2023-05-23T20:29:56.886Z,98621.92
2023-05-23T20:32:25.389Z,98623.17
2023-05-23T20:34:53.113Z,98621.61
2023-05-23T20:37:21.058Z,98623.27
2023-05-23T20:39:49.336Z,98623.77
2023-05-23T20:42:18.035Z,98623.39
2023-05-23T20:44:46.931Z,98627.39
2023-05-23T20:47:15.638Z,98629.60
2023-05-23T20:49:44.295Z,98631.48
2023-05-23T20:52:12.658Z,98635.38
2023-05-23T20:54:42.750Z,98640.52
2023-05-23T20:57:10.543Z,98640.98
2023-05-23T20:59:38.540Z,98645.77
2023-05-23T21:02:06.258Z,98643.05
2023-05-23T21:04:33.998Z,98643.59
2023-05-23T21:07:01.627Z,98643.22
2023-05-23T21:09:29.275Z,98644.55
2023-05-23T21:12:09.333Z,98646.07
2023-05-23T21:14:37.126Z,98648.38
2023-05-23T21:17:04.892Z,98649.46
2023-05-23T21:19:33.068Z,98651.04
2023-05-23T21:22:00.868Z,98653.73
2023-05-23T21:24:29.638Z,98651.20
2023-05-23T21:26:57.642Z,98650.45
2023-05-23T21:29:25.239Z,98651.36
2023-05-23T21:31:53.032Z,98656.05
2023-05-23T21:34:24.165Z,98660.98
2023-05-23T21:36:52.827Z,98664.59
2023-05-23T21:39:20.921Z,98660.77
2023-05-23T21:41:48.532Z,98662.32
2023-05-23T21:44:17.774Z,98663.50
2023-05-23T21:46:45.955Z,98661.98
2023-05-23T21:49:13.936Z,98659.67
2023-05-23T21:51:42.135Z,98660.15
2023-05-23T21:54:10.389Z,98657.03
2023-05-23T21:56:38.005Z,98658.75
2023-05-23T21:59:05.724Z,98661.92
2023-05-23T22:01:33.351Z,98665.33
2023-05-23T22:04:01.389Z,98666.24
2023-05-23T22:06:29.205Z,98669.31
2023-05-23T22:08:56.883Z,98670.66
2023-05-23T22:11:29.455Z,98670.21
2023-05-23T22:13:57.076Z,98667.63
2023-05-23T22:16:25.900Z,98665.54
2023-05-23T22:18:53.899Z,98663.81
2023-05-23T22:21:21.516Z,98660.54
2023-05-23T22:23:49.151Z,98658.48
2023-05-23T22:26:17.778Z,98661.94
2023-05-23T22:28:46.567Z,98658.38
2023-05-23T22:31:14.844Z,98657.45
2023-05-23T22:33:43.009Z,98658.64
2023-05-23T22:36:12.032Z,98654.64
2023-05-23T22:38:39.681Z,98650.76
2023-05-23T22:41:07.318Z,98650.61
2023-05-23T22:43:34.978Z,98647.58
2023-05-23T22:46:02.631Z,98650.55
2023-05-23T22:48:33.876Z,98646.34
2023-05-23T22:51:03.045Z,98645.58
2023-05-23T22:53:31.221Z,98644.83
2023-05-23T22:56:00.368Z,98641.81
2023-05-23T22:58:27.981Z,98643.81
2023-05-23T23:00:55.757Z,98647.05
2023-05-23T23:03:23.506Z,98643.96
2023-05-23T23:05:51.333Z,98646.99
2023-05-23T23:08:19.507Z,98647.41
2023-05-23T23:10:47.226Z,98642.73
2023-05-23T23:13:14.979Z,98643.59
2023-05-23T23:15:43.923Z,98644.91
2023-05-23T23:18:13.790Z,98643.48
2023-05-23T23:20:42.007Z,98641.91
2023-05-23T23:23:10.077Z,98642.92
2023-05-23T23:25:37.772Z,98639.41
2023-05-23T23:28:05.902Z,98638.27
2023-05-23T23:30:33.507Z,98638.79
2023-05-23T23:33:01.403Z,98637.38
2023-05-23T23:35:29.199Z,98632.88
2023-05-23T23:37:56.840Z,98635.15
2023-05-23T23:40:24.460Z,98633.65
2023-05-23T23:42:52.084Z,98635.77
2023-05-23T23:45:19.893Z,98633.50
2023-05-23T23:47:47.588Z,98631.17
2023-05-23T23:50:15.506Z,98631.30
2023-05-23T23:52:43.979Z,98631.66
2023-05-23T23:55:11.832Z,98635.30
2023-05-23T23:57:39.466Z,98633.30
